createdAt,value
2023-01-24T00:01:19.941Z,3.69
2023-01-24T00:03:48.179Z,3.69
2023-01-24T00:06:16.876Z,3.60
2023-01-24T00:08:45.238Z,3.54
2023-01-24T00:11:14.690Z,3.50
2023-01-24T00:13:43.314Z,3.47
2023-01-24T00:16:15.912Z,3.46
2023-01-24T00:18:44.651Z,3.52
2023-01-24T00:21:14.385Z,3.53
2023-01-24T00:23:43.841Z,3.54
2023-01-24T00:26:12.568Z,3.42
2023-01-24T00:28:41.316Z,3.53
2023-01-24T00:31:09.826Z,3.61
2023-01-24T00:33:39.356Z,3.61
2023-01-24T00:36:08.574Z,3.57
2023-01-24T00:38:36.709Z,3.53
2023-01-24T00:41:04.886Z,3.48
2023-01-24T00:43:33.124Z,3.55
2023-01-24T00:46:01.418Z,3.47
2023-01-24T00:48:29.497Z,3.42
2023-01-24T00:50:59.056Z,3.48
2023-01-24T00:53:27.569Z,3.52
2023-01-24T00:55:56.754Z,3.63
2023-01-24T00:58:25.335Z,3.51
2023-01-24T01:00:57.615Z,3.31
2023-01-24T01:03:25.777Z,3.32
2023-01-24T01:06:01.355Z,3.43
2023-01-24T01:08:29.463Z,3.47
2023-01-24T01:10:57.601Z,3.45
2023-01-24T01:13:26.342Z,3.50
2023-01-24T01:16:02.770Z,3.49
2023-01-24T01:18:31.106Z,3.65
2023-01-24T01:21:00.587Z,3.53
2023-01-24T01:23:28.812Z,3.47
2023-01-24T01:26:01.444Z,3.48
2023-01-24T01:28:29.584Z,3.62
2023-01-24T01:30:58.567Z,3.79
2023-01-24T01:33:27.329Z,3.74
2023-01-24T01:35:55.537Z,3.71
2023-01-24T01:38:29.041Z,3.65
2023-01-24T01:40:57.726Z,3.60
2023-01-24T01:43:27.349Z,3.60
2023-01-24T01:45:56.518Z,3.67
2023-01-24T01:48:30.689Z,3.67
2023-01-24T01:51:08.577Z,3.75
2023-01-24T01:53:43.534Z,3.68
2023-01-24T01:56:18.185Z,3.64
2023-01-24T01:58:46.384Z,3.63
2023-01-24T02:01:14.800Z,3.69
2023-01-24T02:03:48.645Z,3.73
2023-01-24T02:06:32.113Z,3.70
2023-01-24T02:09:04.795Z,3.44
2023-01-24T02:11:42.011Z,3.40
2023-01-24T02:14:30.423Z,3.37
2023-01-24T02:16:58.963Z,3.21
2023-01-24T02:19:44.500Z,3.18
2023-01-24T02:22:19.278Z,3.13
2023-01-24T02:24:59.726Z,3.01
2023-01-24T02:27:29.403Z,2.95
2023-01-24T02:29:59.128Z,2.87
2023-01-24T02:32:27.926Z,2.95
2023-01-24T02:34:56.115Z,3.02
2023-01-24T02:37:24.193Z,2.91
2023-01-24T02:39:57.031Z,2.97
2023-01-24T02:42:31.655Z,2.98
2023-01-24T02:45:06.295Z,3.07
2023-01-24T02:47:42.878Z,3.12
2023-01-24T02:50:11.962Z,3.11
2023-01-24T02:52:57.738Z,3.05
2023-01-24T02:55:27.443Z,2.88
2023-01-24T02:58:08.456Z,2.87
2023-01-24T03:00:37.917Z,2.95
2023-01-24T03:03:06.613Z,2.83
2023-01-24T03:05:57.813Z,2.83
2023-01-24T03:08:27.141Z,2.94
2023-01-24T03:11:14.154Z,2.89
2023-01-24T03:14:01.035Z,2.99
2023-01-24T03:16:46.593Z,2.89
2023-01-24T03:19:32.264Z,2.91
2023-01-24T03:22:17.796Z,2.94
2023-01-24T03:25:03.418Z,2.85
2023-01-24T03:27:49.147Z,2.81
2023-01-24T03:30:36.235Z,2.77
2023-01-24T03:33:22.653Z,2.79
2023-01-24T03:35:55.518Z,2.71
2023-01-24T03:38:41.759Z,2.60
2023-01-24T03:41:09.976Z,2.68
2023-01-24T03:43:38.069Z,2.65
2023-01-24T03:46:07.630Z,2.61
2023-01-24T03:48:37.475Z,2.59
2023-01-24T03:51:24.222Z,2.51
2023-01-24T03:53:52.668Z,2.62
2023-01-24T03:56:20.706Z,2.46
2023-01-24T03:58:48.802Z,2.36
2023-01-24T04:01:18.436Z,2.39
2023-01-24T04:03:46.598Z,2.51
2023-01-24T04:06:14.708Z,2.39
2023-01-24T04:08:42.976Z,2.36
2023-01-24T04:11:11.062Z,2.44
2023-01-24T04:13:39.137Z,2.36
2023-01-24T04:16:09.765Z,2.37
2023-01-24T04:18:39.488Z,2.46
2023-01-24T04:21:08.118Z,2.46
2023-01-24T04:23:36.202Z,2.41
2023-01-24T04:26:04.396Z,2.45
2023-01-24T04:28:33.510Z,2.44
2023-01-24T04:31:03.339Z,2.57
2023-01-24T04:33:31.465Z,2.42
2023-01-24T04:36:01.198Z,2.49
2023-01-24T04:38:29.247Z,2.46
2023-01-24T04:41:01.644Z,2.24
2023-01-24T04:43:29.883Z,2.18
2023-01-24T04:45:58.738Z,2.29
2023-01-24T04:48:26.979Z,2.24
2023-01-24T04:51:01.528Z,2.22
2023-01-24T04:53:30.791Z,2.31
2023-01-24T04:56:02.336Z,2.35
2023-01-24T04:58:30.643Z,2.22
2023-01-24T05:00:59.642Z,2.26
2023-01-24T05:03:28.817Z,2.31
2023-01-24T05:05:57.523Z,2.15
2023-01-24T05:08:27.555Z,2.14
2023-01-24T05:10:55.941Z,2.10
2023-01-24T05:13:24.195Z,2.12
2023-01-24T05:15:53.765Z,2.14
2023-01-24T05:18:21.912Z,2.16
2023-01-24T05:20:50.004Z,2.10
2023-01-24T05:23:18.648Z,2.17
2023-01-24T05:25:48.299Z,2.28
2023-01-24T05:28:16.352Z,2.30
2023-01-24T05:30:44.379Z,2.14
2023-01-24T05:33:12.605Z,2.10
2023-01-24T05:35:41.884Z,2.16
2023-01-24T05:38:10.017Z,2.20
2023-01-24T05:40:38.156Z,2.10
2023-01-24T05:43:07.961Z,2.12
2023-01-24T05:45:36.071Z,2.13
2023-01-24T05:48:04.188Z,2.18
2023-01-24T05:50:32.372Z,2.13
2023-01-24T05:53:03.671Z,1.99
2023-01-24T05:55:32.076Z,1.97
2023-01-24T05:58:00.796Z,2.01
2023-01-24T06:00:30.611Z,2.09
2023-01-24T06:03:04.157Z,1.92
2023-01-24T06:05:32.349Z,2.00
2023-01-24T06:08:00.459Z,2.19
2023-01-24T06:10:28.591Z,2.37
2023-01-24T06:12:56.804Z,2.36
2023-01-24T06:15:24.906Z,2.41
2023-01-24T06:17:58.661Z,2.33
2023-01-24T06:20:27.340Z,2.43
2023-01-24T06:22:59.202Z,2.40
2023-01-24T06:25:28.350Z,2.36
2023-01-24T06:27:57.150Z,2.27
2023-01-24T06:30:26.060Z,2.27
2023-01-24T06:33:19.361Z,2.33
2023-01-24T06:36:09.520Z,2.45
2023-01-24T06:38:38.444Z,2.58
2023-01-24T06:41:16.254Z,2.48
2023-01-24T06:43:45.749Z,2.55
2023-01-24T06:46:15.176Z,2.46
2023-01-24T06:48:46.699Z,2.17
2023-01-24T06:51:16.025Z,2.13
2023-01-24T06:53:44.177Z,2.16
2023-01-24T06:56:12.838Z,2.45
2023-01-24T06:58:41.048Z,2.41
2023-01-24T07:01:09.182Z,2.38
2023-01-24T07:03:37.360Z,2.18
2023-01-24T07:06:07.496Z,2.29
2023-01-24T07:08:35.603Z,2.30
2023-01-24T07:11:03.692Z,2.26
2023-01-24T07:13:31.810Z,2.32
2023-01-24T07:16:02.805Z,2.39
2023-01-24T07:18:31.541Z,2.37
2023-01-24T07:21:00.140Z,2.36
2023-01-24T07:23:31.282Z,2.48
2023-01-24T07:25:59.848Z,2.63
2023-01-24T07:28:28.224Z,2.73
2023-01-24T07:30:56.454Z,2.70
2023-01-24T07:33:24.556Z,2.73
2023-01-24T07:35:52.750Z,2.61
2023-01-24T07:38:20.887Z,2.59
2023-01-24T07:40:50.655Z,2.48
2023-01-24T07:43:19.822Z,2.52
2023-01-24T07:45:49.549Z,2.20
2023-01-24T07:48:19.213Z,2.22
2023-01-24T07:50:47.326Z,2.25
2023-01-24T07:53:15.399Z,2.20
2023-01-24T07:55:53.002Z,2.19
2023-01-24T07:58:30.903Z,2.46
2023-01-24T08:00:59.508Z,2.66
2023-01-24T08:03:27.899Z,2.71
2023-01-24T08:05:56.203Z,2.66
2023-01-24T08:08:24.460Z,2.66
2023-01-24T08:10:52.659Z,2.68
2023-01-24T08:13:20.793Z,2.68
2023-01-24T08:15:50.477Z,2.78
2023-01-24T08:18:19.092Z,2.99
2023-01-24T08:20:47.574Z,3.06
2023-01-24T08:23:15.660Z,3.12
2023-01-24T08:25:46.687Z,3.16
2023-01-24T08:28:14.823Z,3.05
2023-01-24T08:30:43.141Z,2.95
2023-01-24T08:33:19.867Z,2.83
2023-01-24T08:35:48.583Z,2.97
2023-01-24T08:38:18.140Z,3.13
2023-01-24T08:40:49.940Z,3.23
2023-01-24T08:43:19.371Z,3.21
2023-01-24T08:45:47.657Z,3.23
2023-01-24T08:48:17.365Z,3.31
2023-01-24T08:50:45.698Z,3.35
2023-01-24T08:53:13.975Z,3.37
2023-01-24T08:55:42.387Z,3.35
2023-01-24T08:58:10.459Z,3.39
2023-01-24T09:00:38.611Z,3.39
2023-01-24T09:03:06.744Z,3.36
2023-01-24T09:05:37.862Z,3.39
2023-01-24T09:08:07.003Z,3.40
2023-01-24T09:10:35.171Z,3.25
2023-01-24T09:13:04.404Z,3.15
2023-01-24T09:15:33.244Z,3.07
2023-01-24T09:18:03.251Z,3.09
2023-01-24T09:20:31.453Z,3.04
2023-01-24T09:23:00.994Z,2.99
2023-01-24T09:25:31.719Z,3.27
2023-01-24T09:27:59.819Z,3.37
2023-01-24T09:30:28.201Z,3.34
2023-01-24T09:32:57.594Z,3.20
2023-01-24T09:35:25.772Z,3.25
2023-01-24T09:37:54.523Z,3.42
2023-01-24T09:40:27.715Z,3.58
2023-01-24T09:43:06.361Z,3.66
2023-01-24T09:45:39.451Z,3.75
2023-01-24T09:48:13.094Z,3.90
2023-01-24T09:50:45.734Z,3.86
2023-01-24T09:53:21.145Z,3.91
2023-01-24T09:55:51.444Z,3.82
2023-01-24T09:58:34.180Z,3.90
2023-01-24T10:01:06.378Z,4.01
2023-01-24T10:03:35.994Z,3.98
2023-01-24T10:06:13.539Z,3.85
2023-01-24T10:08:51.783Z,3.86
2023-01-24T10:11:35.397Z,3.93
2023-01-24T10:14:34.324Z,3.91
2023-01-24T10:17:40.809Z,3.99
2023-01-24T10:20:19.338Z,4.00
2023-01-24T10:23:05.513Z,4.40
2023-01-24T10:25:42.677Z,4.38
2023-01-24T10:28:21.040Z,4.39
2023-01-24T10:30:55.880Z,4.22
2023-01-24T10:33:30.269Z,4.11
2023-01-24T10:36:01.179Z,4.22
2023-01-24T10:38:30.747Z,4.18
2023-01-24T10:41:12.312Z,4.13
2023-01-24T10:43:44.373Z,4.15
2023-01-24T10:46:28.361Z,4.25
2023-01-24T10:48:59.818Z,4.45
2023-01-24T10:51:27.855Z,4.41
2023-01-24T10:54:03.510Z,4.55
2023-01-24T10:56:32.385Z,4.69
2023-01-24T10:59:06.922Z,4.59
2023-01-24T11:01:38.425Z,4.67
2023-01-24T11:04:17.581Z,4.70
2023-01-24T11:06:48.380Z,4.73
2023-01-24T11:09:21.192Z,4.74
2023-01-24T11:11:52.596Z,4.80
2023-01-24T11:14:23.746Z,4.98
2023-01-24T11:16:54.809Z,4.96
2023-01-24T11:19:28.688Z,5.01
2023-01-24T11:21:58.964Z,4.92
2023-01-24T11:24:27.999Z,4.95
2023-01-24T11:27:00.078Z,5.03
2023-01-24T11:29:29.571Z,5.06
2023-01-24T11:32:03.850Z,5.05
2023-01-24T11:34:45.753Z,4.65
2023-01-24T11:37:36.125Z,4.63
2023-01-24T11:40:21.744Z,4.73
2023-01-24T11:43:03.718Z,4.92
2023-01-24T11:45:51.800Z,5.10
2023-01-24T11:48:22.041Z,4.70
2023-01-24T11:51:13.294Z,4.76
2023-01-24T11:54:04.986Z,4.97
2023-01-24T11:56:45.302Z,4.84
2023-01-24T11:59:39.599Z,4.84
2023-01-24T12:02:43.006Z,5.02
2023-01-24T12:05:40.146Z,5.22
2023-01-24T12:08:26.312Z,5.42
2023-01-24T12:11:22.728Z,5.42
2023-01-24T12:14:09.297Z,5.30
2023-01-24T12:16:49.822Z,5.21
2023-01-24T12:19:43.572Z,5.12
2023-01-24T12:22:17.275Z,5.23
2023-01-24T12:24:53.471Z,5.28
2023-01-24T12:27:25.643Z,5.52
2023-01-24T12:30:00.777Z,5.68
2023-01-24T12:32:37.125Z,5.79
2023-01-24T12:35:22.777Z,5.86
2023-01-24T12:38:07.739Z,5.81
2023-01-24T12:40:48.738Z,5.69
2023-01-24T12:43:25.394Z,5.68
2023-01-24T12:46:03.855Z,5.64
2023-01-24T12:48:41.050Z,5.63
2023-01-24T12:51:19.173Z,5.67
2023-01-24T12:54:01.890Z,5.74
2023-01-24T12:56:47.313Z,5.74
2023-01-24T12:59:19.017Z,5.72
2023-01-24T13:02:24.075Z,5.68
2023-01-24T13:05:00.153Z,5.75
2023-01-24T13:07:38.200Z,5.81
2023-01-24T13:10:16.089Z,5.76
2023-01-24T13:12:47.293Z,5.34
2023-01-24T13:15:23.051Z,4.96
2023-01-24T13:18:17.218Z,4.69
2023-01-24T13:21:07.540Z,4.33
2023-01-24T13:23:48.841Z,4.30
2023-01-24T13:27:00.059Z,4.63
2023-01-24T13:29:46.490Z,4.74
2023-01-24T13:32:17.852Z,4.89
2023-01-24T13:34:49.809Z,5.09
2023-01-24T13:37:25.968Z,5.06
2023-01-24T13:40:05.429Z,4.92
2023-01-24T13:42:39.644Z,4.69
2023-01-24T13:45:45.210Z,4.50
2023-01-24T13:49:01.804Z,4.61
2023-01-24T13:51:35.216Z,4.61
2023-01-24T13:54:05.935Z,4.52
2023-01-24T13:57:28.835Z,4.87
2023-01-24T14:00:10.081Z,4.92
2023-01-24T14:02:44.119Z,5.08
2023-01-24T14:05:42.442Z,5.10
2023-01-24T14:08:33.353Z,4.66
2023-01-24T14:11:41.244Z,4.34
2023-01-24T14:14:29.915Z,4.26
2023-01-24T14:17:01.714Z,4.48
2023-01-24T14:19:39.798Z,4.70
2023-01-24T14:22:22.064Z,4.58
2023-01-24T14:25:06.560Z,4.61
2023-01-24T14:27:39.777Z,4.60
2023-01-24T14:30:32.182Z,4.76
2023-01-24T14:33:06.928Z,4.80
2023-01-24T14:35:49.974Z,4.85
2023-01-24T14:38:19.590Z,4.78
2023-01-24T14:40:52.043Z,4.88
2023-01-24T14:43:25.399Z,4.82
2023-01-24T14:45:53.896Z,4.63
2023-01-24T14:48:25.680Z,4.64
2023-01-24T14:51:05.616Z,4.61
2023-01-24T14:53:34.087Z,4.68
2023-01-24T14:56:04.500Z,4.60
2023-01-24T14:58:34.150Z,4.59
2023-01-24T15:01:03.963Z,4.60
2023-01-24T15:03:34.432Z,4.47
2023-01-24T15:06:05.443Z,4.38
2023-01-24T15:08:35.197Z,4.39
2023-01-24T15:11:06.572Z,4.45
2023-01-24T15:13:38.879Z,4.34
2023-01-24T15:16:08.106Z,4.33
2023-01-24T15:18:54.965Z,4.31
2023-01-24T15:21:30.751Z,4.09
2023-01-24T15:23:59.387Z,4.13
2023-01-24T15:26:38.053Z,4.11
2023-01-24T15:29:43.051Z,4.11
2023-01-24T15:32:44.212Z,4.16
2023-01-24T15:35:33.786Z,4.06
2023-01-24T15:38:22.022Z,4.05
2023-01-24T15:41:13.000Z,4.15
2023-01-24T15:43:48.578Z,4.03
2023-01-24T15:46:41.965Z,3.94
2023-01-24T15:49:35.932Z,3.87
2023-01-24T15:52:23.012Z,3.80
2023-01-24T15:54:58.622Z,3.90
2023-01-24T15:57:29.693Z,4.00
2023-01-24T16:00:02.341Z,3.84
2023-01-24T16:02:32.101Z,3.89
2023-01-24T16:05:00.619Z,4.03
2023-01-24T16:07:28.767Z,4.05
2023-01-24T16:09:56.911Z,4.03
2023-01-24T16:12:26.519Z,4.13
2023-01-24T16:15:12.923Z,4.23
2023-01-24T16:17:42.544Z,4.07
2023-01-24T16:20:20.345Z,4.01
2023-01-24T16:22:48.570Z,3.99
2023-01-24T16:25:18.613Z,3.99
2023-01-24T16:27:47.157Z,4.00
2023-01-24T16:30:20.125Z,3.89
2023-01-24T16:32:50.340Z,4.06
2023-01-24T16:35:19.232Z,3.79
2023-01-24T16:37:47.802Z,3.63
2023-01-24T16:40:18.525Z,3.50
2023-01-24T16:42:48.724Z,3.43
2023-01-24T16:45:19.350Z,3.41
2023-01-24T16:47:49.637Z,3.45
2023-01-24T16:50:18.687Z,3.58
2023-01-24T16:52:47.122Z,3.56
2023-01-24T16:55:15.920Z,3.61
2023-01-24T16:57:44.195Z,3.74
2023-01-24T17:00:14.986Z,3.67
2023-01-24T17:02:44.214Z,3.57
2023-01-24T17:05:14.365Z,3.49
2023-01-24T17:07:42.706Z,3.45
2023-01-24T17:10:13.683Z,3.40
2023-01-24T17:12:42.247Z,3.38
2023-01-24T17:15:11.019Z,3.35
2023-01-24T17:17:39.901Z,3.29
2023-01-24T17:20:09.651Z,3.29
2023-01-24T17:22:39.648Z,3.27
2023-01-24T17:25:09.172Z,3.31
2023-01-24T17:27:37.321Z,3.40
2023-01-24T17:30:06.600Z,3.43
2023-01-24T17:32:39.036Z,3.68
2023-01-24T17:35:08.395Z,3.77
2023-01-24T17:37:36.869Z,3.82
2023-01-24T17:40:08.087Z,3.66
2023-01-24T17:42:36.595Z,3.53
2023-01-24T17:45:05.711Z,3.47
2023-01-24T17:47:33.900Z,3.34
2023-01-24T17:50:02.241Z,3.40
2023-01-24T17:52:32.016Z,3.53
2023-01-24T17:55:00.255Z,3.46
2023-01-24T17:57:30.156Z,3.68
2023-01-24T17:59:58.453Z,3.47
2023-01-24T18:02:26.731Z,3.38
2023-01-24T18:04:55.096Z,3.35
2023-01-24T18:07:23.356Z,3.36
2023-01-24T18:09:51.555Z,3.39
2023-01-24T18:12:19.742Z,3.30
2023-01-24T18:14:50.760Z,3.45
2023-01-24T18:17:19.216Z,3.58
2023-01-24T18:19:47.861Z,3.41
2023-01-24T18:22:16.075Z,3.42
2023-01-24T18:24:44.364Z,3.34
2023-01-24T18:27:12.736Z,3.30
2023-01-24T18:29:41.135Z,3.24
2023-01-24T18:32:10.857Z,3.16
2023-01-24T18:34:39.185Z,3.31
2023-01-24T18:37:07.516Z,3.37
2023-01-24T18:39:35.812Z,3.35
2023-01-24T18:42:06.985Z,3.25
2023-01-24T18:44:36.601Z,3.35
2023-01-24T18:47:04.943Z,3.31
2023-01-24T18:49:34.587Z,3.22
2023-01-24T18:52:02.724Z,3.23
2023-01-24T18:54:31.032Z,3.19
2023-01-24T18:57:00.794Z,3.13
2023-01-24T18:59:29.311Z,3.28
2023-01-24T19:01:57.859Z,3.34
2023-01-24T19:04:26.671Z,3.45
2023-01-24T19:06:57.218Z,3.66
2023-01-24T19:09:25.468Z,3.70
2023-01-24T19:11:53.711Z,3.72
2023-01-24T19:14:21.782Z,3.58
2023-01-24T19:16:50.245Z,3.48
2023-01-24T19:19:20.239Z,3.35
2023-01-24T19:21:50.828Z,3.43
2023-01-24T19:24:22.421Z,3.51
2023-01-24T19:26:51.501Z,3.47
2023-01-24T19:29:19.757Z,3.37
2023-01-24T19:31:48.039Z,3.40
2023-01-24T19:34:16.116Z,3.53
2023-01-24T19:36:44.365Z,3.49
2023-01-24T19:39:13.886Z,3.58
2023-01-24T19:41:43.700Z,3.35
2023-01-24T19:44:20.991Z,3.20
2023-01-24T19:46:51.251Z,3.10
2023-01-24T19:49:20.803Z,3.04
2023-01-24T19:51:51.857Z,2.89
2023-01-24T19:54:20.456Z,2.66
2023-01-24T19:56:51.691Z,2.45
2023-01-24T19:59:21.105Z,2.37
2023-01-24T20:01:51.368Z,2.33
2023-01-24T20:04:24.691Z,2.32
2023-01-24T20:06:54.909Z,2.09
2023-01-24T20:09:23.922Z,2.20
2023-01-24T20:11:54.591Z,2.32
2023-01-24T20:14:23.111Z,2.26
2023-01-24T20:16:52.192Z,2.12
2023-01-24T20:19:29.354Z,2.03
2023-01-24T20:21:59.801Z,2.03
2023-01-24T20:24:28.327Z,2.09
2023-01-24T20:26:58.106Z,2.03
2023-01-24T20:29:26.794Z,1.92
2023-01-24T20:31:56.162Z,1.97
2023-01-24T20:34:25.422Z,1.91
2023-01-24T20:36:54.058Z,1.92
2023-01-24T20:39:22.871Z,1.92
2023-01-24T20:41:51.879Z,1.86
2023-01-24T20:44:26.927Z,1.72
2023-01-24T20:46:56.637Z,1.73
2023-01-24T20:49:25.515Z,1.80
2023-01-24T20:51:54.056Z,1.88
2023-01-24T20:54:22.638Z,1.85
2023-01-24T20:56:56.559Z,1.71
2023-01-24T20:59:26.695Z,1.81
2023-01-24T21:01:55.052Z,1.85
2023-01-24T21:04:24.302Z,1.98
2023-01-24T21:06:52.647Z,1.83
2023-01-24T21:09:22.359Z,1.92
2023-01-24T21:11:51.240Z,1.77
2023-01-24T21:14:22.771Z,1.67
2023-01-24T21:16:53.297Z,1.91
2023-01-24T21:19:23.390Z,1.82
2023-01-24T21:21:51.629Z,2.01
2023-01-24T21:24:32.880Z,1.89
2023-01-24T21:27:02.288Z,2.08
2023-01-24T21:29:30.865Z,2.07
2023-01-24T21:32:01.253Z,1.92
2023-01-24T21:34:29.757Z,1.90
2023-01-24T21:36:58.146Z,1.75
2023-01-24T21:39:27.238Z,1.90
2023-01-24T21:42:00.639Z,1.84
2023-01-24T21:44:32.229Z,2.09
2023-01-24T21:47:02.375Z,2.07
2023-01-24T21:49:31.387Z,2.24
2023-01-24T21:52:01.634Z,2.29
2023-01-24T21:54:32.186Z,2.14
2023-01-24T21:57:34.899Z,2.07
2023-01-24T22:00:06.040Z,1.84
2023-01-24T22:02:36.215Z,1.84
2023-01-24T22:05:04.921Z,1.73
2023-01-24T22:07:33.784Z,1.74
2023-01-24T22:10:02.385Z,1.58
2023-01-24T22:12:32.260Z,1.62
2023-01-24T22:15:00.735Z,1.63
2023-01-24T22:17:29.292Z,1.62
2023-01-24T22:20:00.163Z,1.58
2023-01-24T22:22:43.613Z,1.66
2023-01-24T22:25:19.885Z,1.61
2023-01-24T22:27:48.762Z,1.58
2023-01-24T22:30:19.345Z,1.53
2023-01-24T22:32:48.322Z,1.54
2023-01-24T22:35:19.813Z,1.46
2023-01-24T22:37:50.734Z,1.47
2023-01-24T22:40:20.985Z,1.56
2023-01-24T22:42:50.403Z,1.57
2023-01-24T22:45:18.618Z,1.57
2023-01-24T22:47:46.760Z,1.61
2023-01-24T22:50:14.826Z,1.61
2023-01-24T22:52:44.374Z,1.76
2023-01-24T22:55:12.666Z,1.88
2023-01-24T22:57:40.768Z,1.79
2023-01-24T23:00:11.718Z,1.67
2023-01-24T23:02:40.062Z,1.80
2023-01-24T23:05:09.189Z,1.72
2023-01-24T23:07:37.657Z,1.68
2023-01-24T23:10:08.165Z,1.51
2023-01-24T23:12:53.899Z,1.67
2023-01-24T23:15:39.560Z,1.73
2023-01-24T23:18:14.007Z,1.79
2023-01-24T23:20:59.694Z,1.72
2023-01-24T23:23:27.836Z,1.62
2023-01-24T23:25:57.429Z,1.58
2023-01-24T23:28:29.594Z,1.45
2023-01-24T23:31:06.383Z,1.39
2023-01-24T23:33:37.879Z,1.55
2023-01-24T23:36:06.332Z,1.64
2023-01-24T23:38:34.797Z,1.65
2023-01-24T23:41:07.864Z,1.42
2023-01-24T23:43:36.679Z,1.46
2023-01-24T23:46:09.274Z,1.53
2023-01-24T23:48:37.405Z,1.55
2023-01-24T23:51:06.288Z,1.60
2023-01-24T23:53:34.373Z,1.50
2023-01-24T23:56:03.232Z,1.37
2023-01-24T23:58:32.885Z,1.29
